createdAt,value
2023-02-12T00:00:07.788Z,30.40
2023-02-12T00:01:49.410Z,32.40
2023-02-12T00:03:22.518Z,30.80
2023-02-12T00:04:55.564Z,30.43
2023-02-12T00:06:27.697Z,31.80
2023-02-12T00:08:00.812Z,31.77
2023-02-12T00:09:34.352Z,33.47
2023-02-12T00:11:12.784Z,32.93
2023-02-12T00:12:45.865Z,32.87
2023-02-12T00:14:19.064Z,33.67
2023-02-12T00:15:52.197Z,32.93
2023-02-12T00:17:26.664Z,31.93
2023-02-12T00:19:00.868Z,33.93
2023-02-12T00:20:33.930Z,35.93
2023-02-12T00:22:06.064Z,32.70
2023-02-12T00:23:41.105Z,33.33
2023-02-12T00:25:14.727Z,35.57
2023-02-12T00:26:48.452Z,36.90
2023-02-12T00:28:22.213Z,34.03
2023-02-12T00:29:55.302Z,35.77
2023-02-12T00:31:30.632Z,33.53
2023-02-12T00:33:05.353Z,34.63
2023-02-12T00:34:37.611Z,34.87
2023-02-12T00:36:14.417Z,32.80
2023-02-12T00:37:47.482Z,32.67
2023-02-12T00:39:20.685Z,35.50
2023-02-12T00:40:52.929Z,36.00
2023-02-12T00:42:26.028Z,35.67
2023-02-12T00:43:59.283Z,35.90
2023-02-12T00:45:32.967Z,36.23
2023-02-12T00:47:06.393Z,37.77
2023-02-12T00:48:40.853Z,36.40
2023-02-12T00:50:12.954Z,39.17
2023-02-12T00:51:47.317Z,37.47
2023-02-12T00:53:19.711Z,36.10
2023-02-12T00:54:52.783Z,36.53
2023-02-12T00:56:25.896Z,36.33
2023-02-12T00:57:57.975Z,34.43
2023-02-12T00:59:31.948Z,36.17
2023-02-12T01:01:05.137Z,36.57
2023-02-12T01:02:37.460Z,36.50
2023-02-12T01:04:13.298Z,35.87
2023-02-12T01:05:46.430Z,36.40
2023-02-12T01:07:18.521Z,36.17
2023-02-12T01:08:52.652Z,37.60
2023-02-12T01:10:25.373Z,37.10
2023-02-12T01:11:58.463Z,34.70
2023-02-12T01:13:32.779Z,36.17
2023-02-12T01:15:06.677Z,38.77
2023-02-12T01:16:40.280Z,38.70
2023-02-12T01:18:16.174Z,37.17
2023-02-12T01:19:50.983Z,37.87
2023-02-12T01:21:25.794Z,35.53
2023-02-12T01:22:58.856Z,35.23
2023-02-12T01:24:32.147Z,36.17
2023-02-12T01:26:07.410Z,37.43
2023-02-12T01:27:40.929Z,35.23
2023-02-12T01:29:13.978Z,36.17
2023-02-12T01:30:46.463Z,38.17
2023-02-12T01:32:19.638Z,35.53
2023-02-12T01:33:56.160Z,35.43
2023-02-12T01:35:30.571Z,34.43
2023-02-12T01:37:03.697Z,36.07
2023-02-12T01:38:35.920Z,34.93
2023-02-12T01:40:10.367Z,34.73
2023-02-12T01:41:45.553Z,33.20
2023-02-12T01:43:17.665Z,32.87
2023-02-12T01:45:24.006Z,34.07
2023-02-12T01:46:58.780Z,32.37
2023-02-12T01:48:36.450Z,37.20
2023-02-12T01:50:13.949Z,35.07
2023-02-12T01:51:52.327Z,34.97
2023-02-12T01:53:32.550Z,34.70
2023-02-12T01:55:08.877Z,34.27
2023-02-12T01:56:43.186Z,34.77
2023-02-12T01:58:17.308Z,33.00
2023-02-12T01:59:53.974Z,34.40
2023-02-12T02:01:30.112Z,33.83
2023-02-12T02:03:03.751Z,33.63
2023-02-12T02:04:42.661Z,35.33
2023-02-12T02:06:19.869Z,33.83
2023-02-12T02:07:55.702Z,35.73
2023-02-12T02:09:30.510Z,35.90
2023-02-12T02:11:22.861Z,35.43
2023-02-12T02:13:13.512Z,35.33
2023-02-12T02:14:48.236Z,36.57
2023-02-12T02:16:26.882Z,34.73
2023-02-12T02:18:02.575Z,37.60
2023-02-12T02:20:01.525Z,36.23
2023-02-12T02:21:58.483Z,36.73
2023-02-12T02:24:04.402Z,35.50
2023-02-12T02:26:07.229Z,34.83
2023-02-12T02:27:49.824Z,34.03
2023-02-12T02:29:43.142Z,35.27
2023-02-12T02:31:27.199Z,34.43
2023-02-12T02:33:11.049Z,34.17
2023-02-12T02:34:51.695Z,35.73
2023-02-12T02:36:33.085Z,33.00
2023-02-12T02:38:16.675Z,36.27
2023-02-12T02:39:52.609Z,33.73
2023-02-12T02:41:31.552Z,35.20
2023-02-12T02:43:09.233Z,35.13
2023-02-12T02:44:47.154Z,34.73
2023-02-12T02:46:26.158Z,34.60
2023-02-12T02:48:04.390Z,34.93
2023-02-12T02:49:42.193Z,34.00
2023-02-12T02:51:19.544Z,35.90
2023-02-12T02:53:01.952Z,34.50
2023-02-12T02:54:38.906Z,35.83
2023-02-12T02:56:16.263Z,35.23
2023-02-12T02:57:53.622Z,34.50
2023-02-12T02:59:31.740Z,35.13
2023-02-12T03:01:08.679Z,33.20
2023-02-12T03:02:48.893Z,33.03
2023-02-12T03:04:29.633Z,35.17
2023-02-12T03:06:05.466Z,34.50
2023-02-12T03:07:43.107Z,34.13
2023-02-12T03:09:21.129Z,35.20
2023-02-12T03:10:58.692Z,33.83
2023-02-12T03:12:37.738Z,33.93
2023-02-12T03:14:15.145Z,34.77
2023-02-12T03:15:52.612Z,33.90
2023-02-12T03:17:30.710Z,35.97
2023-02-12T03:19:14.668Z,32.80
2023-02-12T03:20:53.126Z,33.07
2023-02-12T03:22:32.010Z,33.13
2023-02-12T03:24:09.694Z,35.90
2023-02-12T03:25:49.940Z,35.10
2023-02-12T03:27:24.851Z,34.07
2023-02-12T03:28:58.388Z,34.57
2023-02-12T03:30:37.045Z,33.20
2023-02-12T03:32:17.640Z,32.87
2023-02-12T03:33:57.936Z,33.43
2023-02-12T03:35:34.001Z,33.47
2023-02-12T03:37:09.299Z,33.20
2023-02-12T03:38:45.923Z,34.63
2023-02-12T03:40:20.708Z,34.87
2023-02-12T03:41:56.711Z,33.53
2023-02-12T03:43:32.090Z,35.40
2023-02-12T03:45:09.966Z,34.43
2023-02-12T03:46:44.374Z,34.17
2023-02-12T03:48:21.991Z,34.17
2023-02-12T03:49:57.783Z,34.33
2023-02-12T03:51:36.615Z,31.60
2023-02-12T03:53:10.004Z,33.20
2023-02-12T03:54:42.486Z,34.23
2023-02-12T03:56:17.882Z,33.00
2023-02-12T03:57:53.835Z,32.70
2023-02-12T03:59:26.646Z,32.10
2023-02-12T04:01:00.523Z,32.70
2023-02-12T04:02:33.989Z,30.93
2023-02-12T04:04:08.758Z,32.20
2023-02-12T04:05:42.152Z,32.07
2023-02-12T04:07:16.921Z,30.87
2023-02-12T04:08:50.426Z,32.53
2023-02-12T04:10:26.095Z,32.27
2023-02-12T04:12:02.742Z,33.27
2023-02-12T04:13:41.456Z,33.40
2023-02-12T04:15:33.162Z,34.23
2023-02-12T04:17:08.079Z,34.10
2023-02-12T04:18:43.931Z,31.07
2023-02-12T04:20:22.032Z,33.27
2023-02-12T04:21:58.625Z,31.57
2023-02-12T04:23:42.100Z,32.27
2023-02-12T04:25:23.298Z,32.20
2023-02-12T04:26:57.268Z,30.33
2023-02-12T04:28:35.506Z,30.53
2023-02-12T04:30:13.630Z,31.20
2023-02-12T04:31:50.420Z,32.20
2023-02-12T04:33:23.876Z,31.63
2023-02-12T04:34:59.195Z,33.30
2023-02-12T04:36:35.506Z,32.80
2023-02-12T04:38:11.566Z,35.60
2023-02-12T04:39:46.684Z,35.03
2023-02-12T04:41:19.091Z,36.40
2023-02-12T04:42:54.372Z,35.97
2023-02-12T04:44:27.964Z,36.17
2023-02-12T04:46:01.357Z,38.43
2023-02-12T04:47:34.714Z,38.87
2023-02-12T04:49:08.270Z,37.43
2023-02-12T04:50:43.000Z,38.83
2023-02-12T04:52:16.388Z,39.50
2023-02-12T04:53:50.164Z,40.03
2023-02-12T04:55:24.966Z,40.77
2023-02-12T04:56:58.323Z,41.20
2023-02-12T04:58:31.699Z,43.63
2023-02-12T05:00:05.875Z,40.60
2023-02-12T05:01:40.063Z,41.10
2023-02-12T05:03:13.545Z,41.03
2023-02-12T05:04:46.951Z,43.83
2023-02-12T05:06:19.761Z,43.43
2023-02-12T05:07:53.173Z,45.10
2023-02-12T05:09:26.566Z,42.20
2023-02-12T05:11:03.805Z,43.30
2023-02-12T05:12:37.228Z,47.70
2023-02-12T05:14:09.640Z,44.70
2023-02-12T05:15:43.029Z,49.60
2023-02-12T05:17:16.528Z,45.47
2023-02-12T05:18:50.202Z,46.03
2023-02-12T05:20:23.662Z,44.67
2023-02-12T05:21:56.984Z,44.53
2023-02-12T05:23:29.663Z,45.17
2023-02-12T05:25:03.039Z,44.37
2023-02-12T05:26:38.530Z,42.13
2023-02-12T05:28:10.947Z,42.17
2023-02-12T05:29:44.436Z,44.20
2023-02-12T05:31:21.154Z,43.23
2023-02-12T05:32:54.915Z,44.27
2023-02-12T05:34:27.292Z,42.43
2023-02-12T05:36:05.131Z,42.17
2023-02-12T05:37:38.578Z,40.67
2023-02-12T05:39:11.253Z,39.40
2023-02-12T05:40:44.607Z,39.80
2023-02-12T05:42:18.385Z,39.07
2023-02-12T05:43:51.875Z,39.47
2023-02-12T05:45:27.882Z,37.33
2023-02-12T05:47:01.240Z,37.23
2023-02-12T05:48:33.974Z,39.33
2023-02-12T05:50:07.973Z,38.57
2023-02-12T05:51:40.522Z,38.77
2023-02-12T05:53:13.868Z,38.90
2023-02-12T05:54:47.271Z,37.30
2023-02-12T05:56:22.012Z,38.40
2023-02-12T05:57:56.965Z,37.90
2023-02-12T05:59:30.306Z,35.73
2023-02-12T06:01:02.763Z,36.53
2023-02-12T06:02:36.433Z,38.27
2023-02-12T06:04:09.709Z,36.07
2023-02-12T06:05:43.074Z,34.47
2023-02-12T06:07:16.772Z,33.03
2023-02-12T06:08:49.251Z,31.27
2023-02-12T06:10:22.705Z,31.50
2023-02-12T06:11:56.085Z,30.77
2023-02-12T06:13:30.905Z,32.10
2023-02-12T06:15:04.295Z,32.77
2023-02-12T06:16:37.562Z,30.20
2023-02-12T06:18:10.985Z,29.90
2023-02-12T06:19:44.466Z,28.97
2023-02-12T06:21:18.679Z,28.90
2023-02-12T06:22:52.075Z,32.00
2023-02-12T06:24:25.450Z,31.50
2023-02-12T06:25:59.053Z,31.33
2023-02-12T06:27:32.608Z,31.13
2023-02-12T06:29:07.384Z,29.00
2023-02-12T06:30:40.736Z,31.70
2023-02-12T06:32:15.316Z,30.37
2023-02-12T06:33:48.998Z,29.63
2023-02-12T06:35:21.434Z,29.77
2023-02-12T06:36:55.912Z,30.93
2023-02-12T06:38:28.320Z,30.37
2023-02-12T06:40:01.714Z,32.03
2023-02-12T06:41:35.366Z,31.20
2023-02-12T06:43:09.048Z,30.37
2023-02-12T06:44:42.858Z,32.50
2023-02-12T06:46:16.383Z,33.93
2023-02-12T06:47:49.493Z,33.17
2023-02-12T06:49:22.635Z,33.87
2023-02-12T06:50:55.867Z,32.37
2023-02-12T06:52:29.346Z,33.00
2023-02-12T06:54:02.755Z,33.87
2023-02-12T06:55:36.335Z,32.93
2023-02-12T06:57:10.211Z,31.00
2023-02-12T06:58:44.334Z,31.13
2023-02-12T07:00:19.875Z,29.27
2023-02-12T07:01:53.256Z,31.90
2023-02-12T07:03:26.884Z,29.23
2023-02-12T07:05:00.304Z,29.23
2023-02-12T07:06:35.345Z,30.47
2023-02-12T07:08:08.732Z,32.03
2023-02-12T07:09:42.181Z,30.80
2023-02-12T07:11:14.707Z,32.40
2023-02-12T07:12:48.408Z,30.33
2023-02-12T07:14:21.961Z,30.73
2023-02-12T07:15:57.097Z,29.77
2023-02-12T07:17:31.174Z,31.30
2023-02-12T07:19:04.627Z,28.90
2023-02-12T07:20:38.020Z,29.20
2023-02-12T07:22:11.559Z,28.50
2023-02-12T07:23:50.793Z,27.63
2023-02-12T07:25:24.765Z,27.20
2023-02-12T07:26:57.169Z,26.47
2023-02-12T07:28:33.589Z,28.53
2023-02-12T07:30:07.918Z,29.50
2023-02-12T07:31:43.052Z,29.17
2023-02-12T07:33:16.884Z,50.77
2023-02-12T07:34:50.328Z,31.07
2023-02-12T07:36:23.838Z,32.90
2023-02-12T07:37:57.253Z,32.10
2023-02-12T07:39:30.661Z,28.27
2023-02-12T07:41:12.225Z,28.17
2023-02-12T07:42:45.686Z,27.07
2023-02-12T07:44:19.048Z,26.40
2023-02-12T07:45:52.458Z,26.67
2023-02-12T07:47:27.226Z,27.73
2023-02-12T07:49:01.505Z,28.50
2023-02-12T07:50:34.560Z,27.53
2023-02-12T07:52:07.946Z,29.90
2023-02-12T07:53:41.678Z,29.30
2023-02-12T07:55:15.148Z,27.87
2023-02-12T07:56:48.547Z,28.20
2023-02-12T07:58:20.924Z,27.97
2023-02-12T07:59:54.474Z,28.40
2023-02-12T08:01:28.794Z,28.37
2023-02-12T08:03:03.556Z,28.27
2023-02-12T08:04:36.811Z,27.60
2023-02-12T08:06:11.231Z,28.37
2023-02-12T08:07:44.316Z,26.13
2023-02-12T08:09:19.652Z,25.43
2023-02-12T08:10:52.744Z,24.80
2023-02-12T08:12:25.904Z,24.70
2023-02-12T08:14:00.105Z,26.73
2023-02-12T08:15:33.198Z,27.13
2023-02-12T08:17:06.344Z,25.13
2023-02-12T08:18:41.138Z,25.63
2023-02-12T08:20:14.602Z,25.87
2023-02-12T08:21:50.055Z,26.17
2023-02-12T08:23:23.170Z,25.97
2023-02-12T08:24:56.270Z,25.57
2023-02-12T08:26:31.440Z,30.23
2023-02-12T08:28:04.638Z,27.43
2023-02-12T08:29:37.921Z,27.20
2023-02-12T08:31:13.000Z,29.33
2023-02-12T08:32:46.224Z,28.07
2023-02-12T08:34:22.048Z,28.47
2023-02-12T08:36:03.097Z,26.30
2023-02-12T08:37:36.190Z,24.93
2023-02-12T08:39:10.761Z,23.70
2023-02-12T08:40:43.898Z,24.40
2023-02-12T08:42:16.999Z,25.27
2023-02-12T08:43:51.431Z,25.17
2023-02-12T08:45:24.509Z,24.83
2023-02-12T08:46:57.709Z,25.40
2023-02-12T08:48:30.939Z,25.40
2023-02-12T08:50:05.984Z,25.70
2023-02-12T08:51:41.403Z,25.27
2023-02-12T08:53:14.756Z,26.50
2023-02-12T08:54:47.887Z,25.87
2023-02-12T08:56:21.257Z,26.70
2023-02-12T08:57:57.851Z,27.13
2023-02-12T08:59:31.320Z,29.77
2023-02-12T09:01:04.632Z,28.07
2023-02-12T09:02:37.772Z,29.43
2023-02-12T09:04:17.802Z,27.77
2023-02-12T09:05:52.446Z,28.50
2023-02-12T09:07:25.656Z,30.27
2023-02-12T09:08:58.730Z,31.23
2023-02-12T09:10:31.819Z,31.37
2023-02-12T09:12:06.103Z,32.07
2023-02-12T09:13:40.013Z,30.20
2023-02-12T09:15:13.128Z,29.40
2023-02-12T09:16:46.298Z,31.07
2023-02-12T09:18:19.470Z,31.60
2023-02-12T09:19:52.532Z,30.77
2023-02-12T09:21:27.225Z,30.30
2023-02-12T09:23:00.419Z,31.77
2023-02-12T09:24:33.843Z,31.20
2023-02-12T09:26:08.395Z,30.87
2023-02-12T09:27:44.645Z,29.80
2023-02-12T09:29:17.684Z,28.83
2023-02-12T09:30:51.464Z,29.13
2023-02-12T09:32:24.611Z,29.40
2023-02-12T09:34:00.614Z,28.60
2023-02-12T09:35:36.518Z,27.73
2023-02-12T09:37:11.007Z,28.73
2023-02-12T09:38:44.504Z,29.40
2023-02-12T09:40:23.002Z,29.37
2023-02-12T09:42:18.371Z,28.80
2023-02-12T09:43:57.616Z,28.23
2023-02-12T09:45:34.903Z,29.03
2023-02-12T09:47:16.271Z,29.07
2023-02-12T09:48:58.284Z,29.03
2023-02-12T09:50:40.767Z,28.70
2023-02-12T09:52:19.004Z,30.07
2023-02-12T09:54:03.569Z,28.73
2023-02-12T09:55:37.323Z,27.17
2023-02-12T09:57:19.137Z,25.83
2023-02-12T09:58:55.236Z,24.17
2023-02-12T10:00:31.586Z,23.60
2023-02-12T10:02:07.673Z,21.87
2023-02-12T10:03:41.309Z,20.73
2023-02-12T10:05:19.111Z,19.53
2023-02-12T10:07:02.840Z,19.20
2023-02-12T10:08:47.672Z,18.43
2023-02-12T10:10:39.138Z,19.47
2023-02-12T10:12:17.994Z,18.27
2023-02-12T10:13:58.790Z,18.53
2023-02-12T10:15:39.551Z,19.13
2023-02-12T10:17:20.821Z,18.17
2023-02-12T10:19:06.806Z,17.27
2023-02-12T10:20:53.726Z,16.77
2023-02-12T10:22:45.464Z,16.83
2023-02-12T10:24:40.859Z,16.70
2023-02-12T10:26:21.882Z,17.57
2023-02-12T10:27:57.603Z,16.70
2023-02-12T10:29:35.093Z,15.73
2023-02-12T10:31:13.179Z,16.20
2023-02-12T10:32:49.137Z,14.70
2023-02-12T10:34:24.809Z,13.60
2023-02-12T10:36:04.682Z,14.20
2023-02-12T10:37:43.635Z,12.77
2023-02-12T10:39:22.835Z,11.90
2023-02-12T10:41:01.737Z,12.70
2023-02-12T10:42:40.263Z,12.93
2023-02-12T10:44:13.547Z,11.87
2023-02-12T10:45:46.671Z,11.03
2023-02-12T10:47:22.257Z,11.30
2023-02-12T10:48:58.900Z,10.83
2023-02-12T10:50:42.562Z,10.03
2023-02-12T10:52:26.369Z,9.83
2023-02-12T10:54:19.986Z,9.80
2023-02-12T10:56:14.756Z,8.90
2023-02-12T10:57:47.897Z,9.03
2023-02-12T10:59:24.871Z,8.53
2023-02-12T11:01:00.816Z,8.70
2023-02-12T11:02:36.132Z,8.20
2023-02-12T11:04:22.672Z,7.97
2023-02-12T11:05:56.080Z,8.17
2023-02-12T11:07:30.056Z,7.77
2023-02-12T11:09:04.568Z,8.17
2023-02-12T11:10:40.184Z,6.87
2023-02-12T11:12:29.485Z,7.10
2023-02-12T11:14:06.170Z,7.30
2023-02-12T11:15:48.100Z,7.00
2023-02-12T11:17:26.457Z,7.40
2023-02-12T11:19:01.372Z,6.97
2023-02-12T11:20:38.464Z,6.53
2023-02-12T11:22:14.580Z,7.13
2023-02-12T11:23:48.781Z,7.70
2023-02-12T11:25:23.630Z,7.10
2023-02-12T11:27:12.914Z,6.70
2023-02-12T11:28:55.408Z,7.07
2023-02-12T11:30:30.687Z,7.00
2023-02-12T11:32:05.453Z,6.40
2023-02-12T11:33:39.059Z,6.67
2023-02-12T11:35:15.219Z,7.07
2023-02-12T11:36:49.876Z,6.63
2023-02-12T11:38:28.252Z,6.73
2023-02-12T11:40:02.227Z,7.23
2023-02-12T11:41:37.616Z,7.27
2023-02-12T11:43:19.719Z,7.30
2023-02-12T11:44:55.528Z,7.70
2023-02-12T11:46:30.226Z,6.70
2023-02-12T11:48:04.365Z,6.80
2023-02-12T11:49:43.957Z,6.70
2023-02-12T11:51:22.358Z,7.03
2023-02-12T11:52:58.473Z,7.47
2023-02-12T11:54:35.262Z,6.93
2023-02-12T11:56:10.426Z,10.07
2023-02-12T11:57:47.121Z,8.07
2023-02-12T11:59:29.826Z,11.40
2023-02-12T12:01:07.581Z,22.37
2023-02-12T12:02:45.205Z,9.30
2023-02-12T12:04:23.135Z,8.13
2023-02-12T12:06:03.910Z,8.47
2023-02-12T12:07:42.488Z,8.40
2023-02-12T12:09:21.558Z,8.10
2023-02-12T12:11:00.952Z,7.50
2023-02-12T12:12:39.834Z,8.60
2023-02-12T12:14:23.631Z,7.27
2023-02-12T12:16:23.132Z,7.70
2023-02-12T12:18:22.154Z,7.67
2023-02-12T12:20:02.509Z,8.13
2023-02-12T12:21:42.085Z,7.77
2023-02-12T12:23:19.884Z,7.40
2023-02-12T12:24:59.278Z,8.03
2023-02-12T12:26:35.708Z,7.57
2023-02-12T12:28:24.874Z,7.73
2023-02-12T12:30:06.681Z,7.60
2023-02-12T12:31:41.653Z,7.67
2023-02-12T12:33:21.845Z,7.20
2023-02-12T12:34:54.906Z,7.50
2023-02-12T12:36:51.865Z,7.37
2023-02-12T12:38:37.296Z,7.40
2023-02-12T12:40:40.326Z,6.90
2023-02-12T12:42:44.587Z,6.33
2023-02-12T12:44:32.303Z,7.00
2023-02-12T12:46:40.909Z,6.10
2023-02-12T12:48:27.698Z,6.73
2023-02-12T12:50:17.071Z,6.80
2023-02-12T12:52:17.341Z,6.60
2023-02-12T12:54:02.855Z,5.83
2023-02-12T12:56:01.061Z,6.63
2023-02-12T12:57:47.695Z,6.20
2023-02-12T12:59:42.008Z,6.47
2023-02-12T13:01:33.407Z,6.27
2023-02-12T13:03:38.972Z,6.50
2023-02-12T13:05:48.612Z,6.50
2023-02-12T13:07:37.236Z,6.20
2023-02-12T13:09:39.660Z,6.10
2023-02-12T13:11:24.157Z,6.70
2023-02-12T13:13:08.159Z,7.57
2023-02-12T13:14:46.432Z,7.27
2023-02-12T13:16:24.456Z,7.10
2023-02-12T13:18:05.155Z,7.40
2023-02-12T13:19:48.383Z,7.30
2023-02-12T13:21:28.718Z,6.93
2023-02-12T13:23:08.105Z,6.90
2023-02-12T13:24:44.786Z,6.00
2023-02-12T13:26:22.231Z,6.40
2023-02-12T13:27:57.726Z,5.70
2023-02-12T13:29:34.219Z,5.70
2023-02-12T13:31:30.114Z,5.93
2023-02-12T13:33:06.772Z,5.70
2023-02-12T13:34:42.592Z,6.27
2023-02-12T13:36:18.681Z,6.03
2023-02-12T13:37:54.118Z,6.03
2023-02-12T13:39:33.286Z,6.50
2023-02-12T13:41:09.395Z,6.43
2023-02-12T13:42:48.444Z,6.53
2023-02-12T13:44:28.120Z,6.80
2023-02-12T13:46:07.957Z,6.57
2023-02-12T13:47:48.142Z,7.20
2023-02-12T13:49:27.503Z,6.83
2023-02-12T13:51:03.962Z,6.57
2023-02-12T13:52:40.987Z,6.70
2023-02-12T13:54:31.995Z,6.90
2023-02-12T13:56:14.564Z,6.10
2023-02-12T13:57:47.673Z,6.80
2023-02-12T13:59:44.377Z,7.53
2023-02-12T14:01:37.860Z,6.50
2023-02-12T14:03:12.041Z,5.80
2023-02-12T14:04:46.880Z,5.90
2023-02-12T14:06:23.458Z,5.73
2023-02-12T14:08:00.706Z,5.47
2023-02-12T14:09:40.962Z,5.80
2023-02-12T14:11:17.378Z,6.03
2023-02-12T14:12:51.009Z,5.60
2023-02-12T14:14:29.509Z,5.30
2023-02-12T14:16:21.228Z,4.73
2023-02-12T14:17:57.408Z,5.20
2023-02-12T14:19:43.318Z,5.63
2023-02-12T14:21:44.385Z,4.97
2023-02-12T14:23:28.472Z,5.07
2023-02-12T14:25:03.830Z,6.50
2023-02-12T14:26:39.257Z,5.83
2023-02-12T14:28:24.351Z,5.83
2023-02-12T14:30:20.472Z,5.93
2023-02-12T14:31:53.689Z,6.03
2023-02-12T14:33:28.277Z,6.77
2023-02-12T14:35:31.850Z,5.70
2023-02-12T14:37:13.672Z,7.30
2023-02-12T14:39:04.095Z,5.57
2023-02-12T14:40:42.865Z,6.33
2023-02-12T14:42:44.732Z,5.93
2023-02-12T14:44:46.353Z,6.10
2023-02-12T14:46:45.546Z,5.50
2023-02-12T14:48:41.482Z,5.33
2023-02-12T14:50:22.891Z,5.77
2023-02-12T14:52:01.070Z,5.70
2023-02-12T14:53:36.726Z,6.40
2023-02-12T14:55:25.317Z,6.13
2023-02-12T14:57:02.355Z,6.07
2023-02-12T14:58:37.436Z,6.50
2023-02-12T15:00:24.564Z,6.10
2023-02-12T15:02:01.701Z,6.23
2023-02-12T15:03:43.149Z,5.93
2023-02-12T15:05:21.419Z,6.07
2023-02-12T15:06:58.506Z,6.97
2023-02-12T15:08:37.984Z,6.60
2023-02-12T15:10:20.221Z,7.00
2023-02-12T15:12:01.961Z,7.67
2023-02-12T15:13:45.175Z,6.93
2023-02-12T15:15:26.366Z,7.80
2023-02-12T15:17:04.652Z,8.40
2023-02-12T15:18:49.210Z,9.27
2023-02-12T15:20:25.679Z,8.23
2023-02-12T15:21:59.168Z,8.73
2023-02-12T15:23:39.607Z,8.87
2023-02-12T15:25:18.837Z,7.53
2023-02-12T15:26:54.437Z,8.30
2023-02-12T15:28:35.047Z,8.03
2023-02-12T15:30:25.695Z,7.80
2023-02-12T15:32:02.464Z,7.20
2023-02-12T15:33:38.779Z,8.37
2023-02-12T15:35:23.584Z,8.37
2023-02-12T15:36:59.423Z,8.07
2023-02-12T15:38:35.354Z,8.90
2023-02-12T15:40:15.546Z,9.13
2023-02-12T15:41:50.772Z,9.27
2023-02-12T15:43:28.899Z,8.87
2023-02-12T15:45:22.066Z,10.07
2023-02-12T15:46:56.897Z,9.07
2023-02-12T15:48:35.633Z,8.90
2023-02-12T15:50:12.802Z,9.23
2023-02-12T15:51:46.270Z,8.53
2023-02-12T15:53:19.911Z,8.93
2023-02-12T15:54:53.696Z,8.97
2023-02-12T15:56:27.635Z,8.63
2023-02-12T15:58:03.255Z,8.23
2023-02-12T15:59:36.630Z,8.90
2023-02-12T16:01:10.110Z,10.73
2023-02-12T16:02:43.479Z,11.40
2023-02-12T16:04:16.942Z,10.97
2023-02-12T16:05:50.938Z,10.13
2023-02-12T16:07:24.965Z,10.70
2023-02-12T16:09:00.204Z,10.07
2023-02-12T16:10:33.668Z,10.73
2023-02-12T16:12:11.222Z,10.17
2023-02-12T16:13:47.384Z,9.10
2023-02-12T16:15:28.491Z,10.37
2023-02-12T16:17:01.604Z,9.80
2023-02-12T16:18:34.690Z,10.60
2023-02-12T16:20:21.684Z,9.67
2023-02-12T16:21:56.594Z,10.00
2023-02-12T16:23:29.999Z,10.13
2023-02-12T16:25:04.123Z,10.33
2023-02-12T16:26:37.806Z,11.07
2023-02-12T16:28:17.975Z,11.23
2023-02-12T16:29:54.481Z,9.73
2023-02-12T16:31:29.014Z,9.40
2023-02-12T16:33:03.113Z,8.83
2023-02-12T16:34:37.358Z,9.03
2023-02-12T16:36:14.978Z,9.33
2023-02-12T16:37:49.518Z,8.63
2023-02-12T16:39:52.273Z,8.60
2023-02-12T16:41:27.021Z,8.30
2023-02-12T16:43:01.909Z,8.73
2023-02-12T16:44:35.635Z,8.20
2023-02-12T16:46:10.677Z,9.03
2023-02-12T16:47:44.069Z,9.33
2023-02-12T16:49:18.341Z,11.20
2023-02-12T16:50:53.035Z,11.07
2023-02-12T16:52:35.739Z,10.57
2023-02-12T16:54:28.015Z,10.87
2023-02-12T16:56:02.084Z,9.83
2023-02-12T16:57:35.498Z,9.70
2023-02-12T16:59:08.875Z,11.30
2023-02-12T17:00:42.920Z,11.33
2023-02-12T17:02:17.716Z,10.27
2023-02-12T17:03:51.334Z,12.77
2023-02-12T17:05:25.054Z,11.73
2023-02-12T17:06:59.019Z,14.03
2023-02-12T17:08:32.407Z,17.23
2023-02-12T17:10:06.117Z,19.37
2023-02-12T17:11:39.541Z,21.57
2023-02-12T17:13:13.424Z,22.20
2023-02-12T17:14:46.792Z,22.97
2023-02-12T17:16:30.234Z,20.70
2023-02-12T17:18:06.412Z,18.13
2023-02-12T17:19:39.873Z,18.10
2023-02-12T17:21:20.193Z,18.93
2023-02-12T17:22:55.098Z,22.40
2023-02-12T17:24:30.054Z,20.93
2023-02-12T17:26:03.418Z,24.53
2023-02-12T17:27:38.286Z,25.40
2023-02-12T17:29:12.625Z,24.73
2023-02-12T17:30:46.169Z,27.20
2023-02-12T17:32:19.316Z,25.80
2023-02-12T17:33:54.145Z,24.27
2023-02-12T17:35:27.570Z,22.43
2023-02-12T17:37:00.935Z,21.53
2023-02-12T17:38:34.353Z,20.23
2023-02-12T17:40:08.752Z,18.90
2023-02-12T17:41:42.605Z,17.53
2023-02-12T17:43:15.988Z,16.67
2023-02-12T17:44:49.080Z,19.43
2023-02-12T17:46:23.498Z,21.30
2023-02-12T17:47:56.913Z,20.47
2023-02-12T17:49:32.085Z,19.80
2023-02-12T17:51:05.728Z,19.53
2023-02-12T17:52:39.120Z,21.10
2023-02-12T17:54:13.882Z,17.13
2023-02-12T17:55:47.242Z,14.73
2023-02-12T17:57:20.949Z,13.00
2023-02-12T17:58:54.791Z,12.80
2023-02-12T18:00:29.722Z,13.00
2023-02-12T18:02:03.169Z,12.50
2023-02-12T18:03:36.539Z,13.10
2023-02-12T18:05:11.512Z,11.53
2023-02-12T18:06:44.947Z,13.20
2023-02-12T18:08:18.548Z,13.30
2023-02-12T18:09:52.027Z,14.33
2023-02-12T18:11:25.972Z,14.53
2023-02-12T18:12:59.366Z,12.97
2023-02-12T18:14:32.771Z,13.50
2023-02-12T18:16:07.909Z,14.17
2023-02-12T18:17:43.532Z,14.07
2023-02-12T18:19:17.275Z,12.60
2023-02-12T18:20:51.993Z,12.70
2023-02-12T18:22:25.734Z,13.37
2023-02-12T18:23:59.086Z,13.17
2023-02-12T18:25:32.483Z,13.90
2023-02-12T18:27:05.842Z,14.20
2023-02-12T18:28:39.323Z,12.70
2023-02-12T18:30:14.037Z,13.03
2023-02-12T18:31:47.616Z,12.77
2023-02-12T18:33:21.048Z,12.97
2023-02-12T18:34:54.492Z,14.27
2023-02-12T18:36:29.578Z,13.63
2023-02-12T18:38:02.949Z,13.40
2023-02-12T18:39:36.485Z,14.87
2023-02-12T18:41:10.042Z,14.37
2023-02-12T18:42:43.554Z,14.53
2023-02-12T18:44:17.060Z,14.27
2023-02-12T18:45:50.631Z,14.90
2023-02-12T18:47:24.055Z,15.07
2023-02-12T18:48:57.637Z,15.93
2023-02-12T18:50:31.070Z,15.07
2023-02-12T18:52:05.949Z,16.40
2023-02-12T18:53:39.337Z,16.00
2023-02-12T18:55:12.842Z,14.90
2023-02-12T18:56:48.177Z,16.33
2023-02-12T18:58:21.614Z,15.80
2023-02-12T18:59:55.014Z,15.77
2023-02-12T19:01:28.985Z,15.60
2023-02-12T19:03:02.884Z,15.17
2023-02-12T19:04:36.386Z,15.23
2023-02-12T19:06:09.763Z,15.50
2023-02-12T19:07:44.217Z,15.43
2023-02-12T19:09:20.230Z,16.30
2023-02-12T19:10:53.319Z,18.63
2023-02-12T19:12:26.975Z,21.27
2023-02-12T19:14:00.718Z,17.53
2023-02-12T19:15:34.274Z,43.93
2023-02-12T19:17:07.751Z,41.30
2023-02-12T19:18:41.409Z,32.80
2023-02-12T19:20:15.755Z,37.80
2023-02-12T19:21:49.922Z,39.77
2023-02-12T19:23:24.396Z,31.47
2023-02-12T19:24:57.835Z,20.77
2023-02-12T19:26:31.600Z,19.47
2023-02-12T19:28:05.067Z,20.57
2023-02-12T19:29:38.539Z,20.57
2023-02-12T19:31:14.307Z,19.97
2023-02-12T19:32:48.707Z,19.80
2023-02-12T19:34:24.739Z,20.93
2023-02-12T19:35:58.192Z,22.93
2023-02-12T19:37:31.999Z,21.00
2023-02-12T19:39:07.068Z,22.97
2023-02-12T19:40:40.514Z,21.87
2023-02-12T19:42:14.928Z,22.60
2023-02-12T19:43:48.756Z,21.60
2023-02-12T19:45:22.265Z,20.97
2023-02-12T19:46:56.881Z,21.40
2023-02-12T19:48:30.772Z,21.47
2023-02-12T19:50:04.159Z,22.47
2023-02-12T19:51:39.503Z,24.57
2023-02-12T19:53:12.906Z,22.43
2023-02-12T19:54:47.720Z,23.20
2023-02-12T19:56:21.393Z,23.93
2023-02-12T19:57:54.801Z,24.10
2023-02-12T19:59:28.603Z,25.50
2023-02-12T20:01:02.342Z,24.67
2023-02-12T20:02:35.775Z,23.60
2023-02-12T20:04:13.676Z,23.00
2023-02-12T20:05:52.022Z,22.87
2023-02-12T20:07:25.466Z,22.33
2023-02-12T20:08:59.423Z,21.73
2023-02-12T20:10:34.227Z,22.97
2023-02-12T20:12:07.897Z,24.70
2023-02-12T20:13:41.697Z,25.70
2023-02-12T20:15:15.185Z,26.47
2023-02-12T20:16:48.580Z,25.73
2023-02-12T20:18:23.122Z,26.07
2023-02-12T20:19:56.505Z,25.90
2023-02-12T20:21:30.039Z,25.13
2023-02-12T20:23:03.600Z,26.40
2023-02-12T20:24:37.013Z,26.80
2023-02-12T20:26:14.078Z,26.50
2023-02-12T20:27:47.581Z,24.73
2023-02-12T20:29:21.047Z,24.70
2023-02-12T20:30:55.081Z,24.47
2023-02-12T20:32:28.816Z,25.40
2023-02-12T20:34:03.188Z,25.10
2023-02-12T20:35:37.222Z,25.50
2023-02-12T20:37:10.583Z,23.27
2023-02-12T20:38:44.898Z,23.50
2023-02-12T20:40:18.563Z,25.37
2023-02-12T20:41:53.336Z,24.10
2023-02-12T20:43:26.717Z,22.67
2023-02-12T20:45:00.154Z,21.47
2023-02-12T20:46:36.121Z,21.47
2023-02-12T20:48:09.580Z,22.67
2023-02-12T20:49:43.020Z,21.47
2023-02-12T20:51:17.563Z,20.90
2023-02-12T20:52:50.987Z,20.77
2023-02-12T20:54:24.909Z,22.10
2023-02-12T20:56:02.029Z,22.23
2023-02-12T20:57:36.864Z,22.50